Terminal Aerodrome Forecast
Issued by NWS

Home | Current Version | Previous Version | Text Only | Print | Product List | Glossary On
Versions: 1 2 3 4 5 6 7 8 9 10 11 12 13 14 15 16 17 18 19 20
000
FTUS43 KGRB 291100
TAFAUW
TAF
KAUW 291122Z 2912/3012 12006KT 6SM BR VCTS SCT005 BKN009CB
      TEMPO 2912/2916 3SM SHRA BKN005
     FM291600 18008KT P6SM VCSH BKN009 OVC025
     FM292100 21010KT P6SM VCSH SCT015 BKN050
     FM300000 VRB03KT 4SM SHRA BR OVC015=

USA.gov is the U.S. government's official web portal to all federal, state and local government web resources and services.